Cornettsville, Kentucky
Current Conditions -  °F | °C
As of 10:15 PM on Monday 26 Jan 2015 (Local Time) from KI35 Reporting Station
Overcast Overcast  
Wind Chill: 21°   Ceiling: 1400
Heat Index: 28°   Visibility: 10mi
Dew Point: 23°   Wind: 7mph
Humidity: 80%   Direction: 280°W
Pressure: 29.91"   Gusts: NA
Location:  37.13°N, 83.08°W
Report Text: KI35 270315Z AUTO 28006KT 10SM BKN014 OVC019 M02/M05 A2991 RMK AO1
Loading
Personal Weather Stations






























Interactive Weather Map New forecast layout! Learn more

10-Day Weather Forecast

Advertisements
Track Severe Weather on mobile